Coalmont, TN (37313)

8:57 AM CST on February 28, 2015 (GMT -0600)
Gruetli-Laager | Change Station
CLOSE
Current Station
Personal Weather Station
Location: Palmer, TN
Elevation: 1926 ft
Nearby Weather Stations

Elev 1926 ft 35.38 °N, 85.58 °W | Updated 1 minute ago

Overcast
Overcast
37.9 °F
Feels Like 32 °F
N
8.3
Wind Variable Wind from ESE

Today
High -- | Low -- °F
--% Chance of Precip.
Yesterday
High -- | Low -- °F
Precip. -- in
6:13 AM 5:36 PM
Waxing Gibbous, 78% visible
Pressure 30.55 in
Visibility 10.0 miles
Clouds Scattered Clouds 8500 ft
Windchill 32 °F
Dew Point 24 °F
Humidity 58%
Rainfall 0.00 in
Snow Depth Not available.
UV 2 out of 12
Pollen 3.30 out of 12
Air Quality Not available.
Flu Activity Not available.
METAR KBGF 281435Z AUTO 10006KT 10SM SCT085 01/M07 A3055 RMK

More Conditions Fewer Conditions

Pressure 30.55 in
Visibility 10.0 miles
Clouds Scattered Clouds 8500 ft
Windchill 32 °F
Dew Point 24 °F
Humidity 58%
Rainfall 0.00 in
Snow Depth Not available.
UV 2 out of 12
Pollen 3.30 out of 12
Air Quality Not available.
Flu Activity Not available.
METAR KBGF 281435Z AUTO 10006KT 10SM SCT085 01/M07 A3055 RMK

More Conditions Fewer Conditions

10-Day Weather Forecast

Almanac

Astronomy

Feb. 28, 2015 Rise Set
Actual Time
Civil Twilight
Nautical Twilight
Astronomical Twilight
Moon
Length of Visible Light
Length of Day
Tomorrow will be .
, % of the Moon is Illuminated

Today's Extremes

State Highs State Lows

Community

WunderPhotos

Upload Photos

1,801,025 photos uploaded!

WunderBlogs® & News

Nearby

Air Quality

  Air Quality AQ Index Pollutant
Not available.

Snow Depth

Station Depth Elevation

Earthquake Activity

City Distance Mag. Time & Date
Minimum magnitude displayed is 2.5.

Coastal Water Temperatures

Place Temperature

Nearby Weather Stations